Terminal Aerodrome Forecast
Issued by NWS Charleston, WV

Current Version | Previous Version | Graphics & Text | Print | Product List | Glossary On
Versions: 1 2 3 4 5 6 7 8 9 10 11 12 13 14 15 16 17 18 19 20 21 22
000
FTUS41 KRLX 221131
TAFPKB
TAF
KPKB 221131Z 2212/2312 24005KT P6SM SKC
     FM221400 24007KT P6SM SCT150
     FM221600 25010G15KT P6SM BKN045
     FM222200 28008KT P6SM SCT035
     FM230000 31005KT P6SM SCT030=

USA.gov is the U.S. government's official web portal to all federal, state and local government web resources and services.